Creston, California
Current Conditions -  °F | °C
As of 1:53 AM on Thursday 23 Oct 2014 (Local Time) from KPRB Reporting Station
Clear Clear  
Wind Chill: 51°   Ceiling: Unl
Heat Index: 51°   Visibility: 10mi
Dew Point: 37°   Wind: 0mph
Humidity: 59%   Direction: NA
Pressure: 30.03"   Gusts: NA
Location:  35.52°N, 120.52°W
Report Text: KPRB 230853Z AUTO 00000KT 10SM CLR 11/03 A3003 RMK AO2 SLP165 T01060028 58005 TSNO
Loading
Personal Weather Stations






























Interactive Weather Map
Tropical Storm Tracking
New forecast layout! Learn more

10-Day Weather Forecast

Advertisements
Track Severe Weather on mobile